createdAt,value
2022-09-21T00:01:24.085Z,7.00
2022-09-21T00:03:54.729Z,7.13
2022-09-21T00:06:24.347Z,7.43
2022-09-21T00:08:52.671Z,6.87
2022-09-21T00:11:24.890Z,7.40
2022-09-21T00:13:55.334Z,7.50
2022-09-21T00:16:23.838Z,7.87
2022-09-21T00:18:52.473Z,7.90
2022-09-21T00:21:21.402Z,8.50
2022-09-21T00:23:49.796Z,8.03
2022-09-21T00:26:20.111Z,8.70
2022-09-21T00:28:54.731Z,7.70
2022-09-21T00:31:24.021Z,8.27
2022-09-21T00:33:52.393Z,8.33
2022-09-21T00:36:23.172Z,8.17
2022-09-21T00:38:52.639Z,7.93
2022-09-21T00:41:21.612Z,9.03
2022-09-21T00:44:25.374Z,8.30
2022-09-21T00:46:55.917Z,8.00
2022-09-21T00:49:25.828Z,7.37
2022-09-21T00:51:55.101Z,8.27
2022-09-21T00:54:27.147Z,8.27
2022-09-21T00:56:56.390Z,9.40
2022-09-21T00:59:30.121Z,8.80
2022-09-21T01:01:59.881Z,9.27
2022-09-21T01:04:29.391Z,9.07
2022-09-21T01:06:59.538Z,9.37
2022-09-21T01:09:29.157Z,10.50
2022-09-21T01:12:11.925Z,10.70
2022-09-21T01:14:55.702Z,10.73
2022-09-21T01:17:31.493Z,10.73
2022-09-21T01:20:46.905Z,11.17
2022-09-21T01:23:34.903Z,10.23
2022-09-21T01:26:11.473Z,10.93
2022-09-21T01:29:18.722Z,11.60
2022-09-21T01:31:52.019Z,10.70
2022-09-21T01:34:27.010Z,11.50
2022-09-21T01:36:57.050Z,10.40
2022-09-21T01:39:26.304Z,18.23
2022-09-21T01:41:57.109Z,32.20
2022-09-21T01:44:30.924Z,23.17
2022-09-21T01:47:01.122Z,17.47
2022-09-21T01:49:34.429Z,15.50
2022-09-21T01:52:09.749Z,14.77
2022-09-21T01:54:42.384Z,14.40
2022-09-21T01:57:19.871Z,13.87
2022-09-21T01:59:53.767Z,14.13
2022-09-21T02:02:33.074Z,13.33
2022-09-21T02:05:03.254Z,13.40
2022-09-21T02:07:33.228Z,13.60
2022-09-21T02:10:03.059Z,13.07
2022-09-21T02:12:32.993Z,12.97
2022-09-21T02:15:03.851Z,11.03
2022-09-21T02:17:42.215Z,11.10
2022-09-21T02:20:20.810Z,10.73
2022-09-21T02:23:03.370Z,10.60
2022-09-21T02:25:41.172Z,11.20
2022-09-21T02:28:18.068Z,11.20
2022-09-21T02:30:57.338Z,14.03
2022-09-21T02:33:29.532Z,13.47
2022-09-21T02:36:05.985Z,13.30
2022-09-21T02:38:38.091Z,12.20
2022-09-21T02:41:14.104Z,13.20
2022-09-21T02:43:47.446Z,13.90
2022-09-21T02:46:22.555Z,14.30
2022-09-21T02:48:54.309Z,14.57
2022-09-21T02:51:27.362Z,12.37
2022-09-21T02:53:56.864Z,10.97
2022-09-21T02:56:26.246Z,10.77
2022-09-21T02:58:59.626Z,11.03
2022-09-21T03:01:30.503Z,10.10
2022-09-21T03:03:58.792Z,9.63
2022-09-21T03:06:27.165Z,9.43
2022-09-21T03:08:55.357Z,8.50
2022-09-21T03:11:23.642Z,9.83
2022-09-21T03:13:53.307Z,8.73
2022-09-21T03:16:22.406Z,9.43
2022-09-21T03:18:52.633Z,10.20
2022-09-21T03:21:22.010Z,9.53
2022-09-21T03:23:50.221Z,10.03
2022-09-21T03:26:22.327Z,10.37
2022-09-21T03:28:50.848Z,14.57
2022-09-21T03:31:19.450Z,16.23
2022-09-21T03:33:47.985Z,18.70
2022-09-21T03:36:17.817Z,27.37
2022-09-21T03:38:46.063Z,24.77
2022-09-21T03:41:15.310Z,23.57
2022-09-21T03:43:43.621Z,17.43
2022-09-21T03:46:11.932Z,15.83
2022-09-21T03:48:42.415Z,14.80
2022-09-21T03:51:10.767Z,14.03
2022-09-21T03:53:40.225Z,15.00
2022-09-21T03:56:08.395Z,17.77
2022-09-21T03:58:36.796Z,16.53
2022-09-21T04:01:05.138Z,19.57
2022-09-21T04:03:33.483Z,17.37
2022-09-21T04:06:01.703Z,21.53
2022-09-21T04:08:29.818Z,17.23
2022-09-21T04:11:00.112Z,20.23
2022-09-21T04:13:28.276Z,19.33
2022-09-21T04:15:57.024Z,15.77
2022-09-21T04:18:25.531Z,13.93
2022-09-21T04:20:53.723Z,14.90
2022-09-21T04:23:22.970Z,14.07
2022-09-21T04:25:51.991Z,12.70
2022-09-21T04:28:22.701Z,11.67
2022-09-21T04:30:55.722Z,11.23
2022-09-21T04:33:24.581Z,11.60
2022-09-21T04:35:56.692Z,12.57
2022-09-21T04:38:24.950Z,11.07
2022-09-21T04:40:57.441Z,12.50
2022-09-21T04:43:27.316Z,13.60
2022-09-21T04:45:55.497Z,14.17
2022-09-21T04:48:23.669Z,15.73
2022-09-21T04:50:52.253Z,14.00
2022-09-21T04:53:20.434Z,12.67
2022-09-21T04:55:48.683Z,11.40
2022-09-21T04:58:19.255Z,10.97
2022-09-21T05:00:51.838Z,12.23
2022-09-21T05:03:20.775Z,11.67
2022-09-21T05:05:49.784Z,11.47
2022-09-21T05:08:39.133Z,13.10
2022-09-21T05:11:07.028Z,11.90
2022-09-21T05:13:35.201Z,12.37
2022-09-21T05:16:05.091Z,10.27
2022-09-21T05:18:33.303Z,12.83
2022-09-21T05:21:02.705Z,13.47
2022-09-21T05:23:31.926Z,13.77
2022-09-21T05:26:00.925Z,14.67
2022-09-21T05:28:30.312Z,14.00
2022-09-21T05:31:17.617Z,13.63
2022-09-21T05:33:52.069Z,14.13
2022-09-21T05:36:34.608Z,12.00
2022-09-21T05:39:03.244Z,11.37
2022-09-21T05:41:32.255Z,11.50
2022-09-21T05:44:01.321Z,12.90
2022-09-21T05:46:39.011Z,14.70
2022-09-21T05:49:15.342Z,10.93
2022-09-21T05:51:52.365Z,13.70
2022-09-21T05:54:25.358Z,15.27
2022-09-21T05:57:02.102Z,12.40
2022-09-21T05:59:45.263Z,14.70
2022-09-21T06:02:27.482Z,10.90
2022-09-21T06:04:58.914Z,11.23
2022-09-21T06:07:27.273Z,12.83
2022-09-21T06:09:55.484Z,11.53
2022-09-21T06:12:23.819Z,13.23
2022-09-21T06:14:51.941Z,12.97
2022-09-21T06:17:21.726Z,13.17
2022-09-21T06:19:49.916Z,14.27
2022-09-21T06:22:18.407Z,12.80
2022-09-21T06:24:46.703Z,13.37
2022-09-21T06:27:15.241Z,14.13
2022-09-21T06:29:43.521Z,14.23
2022-09-21T06:32:12.162Z,14.57
2022-09-21T06:34:43.008Z,14.90
2022-09-21T06:37:11.391Z,14.03
2022-09-21T06:39:39.571Z,12.23
2022-09-21T06:42:09.775Z,12.50
2022-09-21T06:44:37.901Z,11.70
2022-09-21T06:47:06.399Z,11.23
2022-09-21T06:49:36.388Z,11.47
2022-09-21T06:52:09.254Z,10.07
2022-09-21T06:54:39.657Z,10.53
2022-09-21T06:57:07.869Z,10.50
2022-09-21T06:59:36.945Z,11.63
2022-09-21T07:02:05.672Z,11.07
2022-09-21T07:04:34.155Z,10.83
2022-09-21T07:07:04.681Z,10.20
2022-09-21T07:12:23.016Z,10.23
2022-09-21T07:14:52.344Z,9.47
2022-09-21T07:17:20.970Z,9.27
2022-09-21T07:19:50.491Z,9.37
2022-09-21T07:22:18.825Z,8.33
2022-09-21T07:24:48.349Z,8.17
2022-09-21T07:27:16.579Z,8.40
2022-09-21T07:29:44.816Z,7.20
2022-09-21T07:32:14.721Z,7.60
2022-09-21T07:34:45.617Z,7.70
2022-09-21T07:37:14.472Z,8.00
2022-09-21T07:39:42.630Z,7.10
2022-09-21T07:42:12.199Z,6.70
2022-09-21T07:44:40.383Z,6.23
2022-09-21T07:47:08.937Z,7.30
2022-09-21T07:49:37.069Z,6.77
2022-09-21T07:52:09.379Z,6.63
2022-09-21T07:54:39.044Z,6.27
2022-09-21T07:57:26.179Z,6.30
2022-09-21T07:59:58.991Z,6.00
2022-09-21T08:02:27.337Z,5.97
2022-09-21T08:04:55.760Z,6.30
2022-09-21T08:07:24.325Z,5.97
2022-09-21T08:09:52.745Z,6.30
2022-09-21T08:12:21.145Z,6.20
2022-09-21T08:14:50.076Z,6.13
2022-09-21T08:17:19.696Z,5.53
2022-09-21T08:19:48.161Z,6.43
2022-09-21T08:22:16.326Z,5.73
2022-09-21T08:24:44.713Z,5.60
2022-09-21T08:27:12.936Z,5.80
2022-09-21T08:29:43.131Z,5.77
2022-09-21T08:32:22.862Z,5.83
2022-09-21T08:35:01.002Z,5.77
2022-09-21T08:37:29.621Z,6.00
2022-09-21T08:39:57.771Z,6.07
2022-09-21T08:42:41.223Z,5.70
2022-09-21T08:45:15.358Z,5.57
2022-09-21T08:47:46.794Z,6.03
2022-09-21T08:50:30.680Z,5.50
2022-09-21T08:53:04.775Z,5.87
2022-09-21T08:55:33.173Z,5.10
2022-09-21T08:58:02.104Z,5.37
2022-09-21T09:00:37.697Z,4.73
2022-09-21T09:03:40.664Z,4.40
2022-09-21T09:06:16.521Z,4.90
2022-09-21T09:09:14.786Z,4.80
2022-09-21T09:11:54.905Z,4.10
2022-09-21T09:14:38.348Z,4.07
2022-09-21T09:17:24.580Z,3.80
2022-09-21T09:19:58.889Z,3.73
2022-09-21T09:22:33.312Z,4.43
2022-09-21T09:25:05.571Z,4.07
2022-09-21T09:27:37.915Z,4.80
2022-09-21T09:30:13.994Z,3.70
2022-09-21T09:32:50.511Z,4.23
2022-09-21T09:35:26.744Z,4.60
2022-09-21T09:38:03.028Z,3.93
2022-09-21T09:40:53.606Z,4.03
2022-09-21T09:43:33.965Z,3.90
2022-09-21T09:46:12.528Z,3.80
2022-09-21T09:48:55.055Z,3.43
2022-09-21T09:51:23.836Z,3.50
2022-09-21T09:53:54.873Z,3.97
2022-09-21T09:56:23.752Z,3.50
2022-09-21T09:58:55.554Z,3.40
2022-09-21T10:01:42.757Z,3.30
2022-09-21T10:04:12.966Z,3.07
2022-09-21T10:06:46.180Z,2.50
2022-09-21T10:09:24.666Z,2.53
2022-09-21T10:11:54.014Z,3.20
2022-09-21T10:14:24.925Z,3.43
2022-09-21T10:16:54.391Z,3.03
2022-09-21T10:19:25.625Z,3.27
2022-09-21T10:21:58.311Z,3.00
2022-09-21T10:24:30.816Z,2.50
2022-09-21T10:27:06.380Z,2.33
2022-09-21T10:29:41.958Z,2.60
2022-09-21T10:32:21.942Z,2.83
2022-09-21T10:35:16.354Z,2.60
2022-09-21T10:37:47.172Z,2.33
2022-09-21T10:40:30.900Z,2.40
2022-09-21T10:43:01.352Z,2.10
2022-09-21T10:45:30.907Z,2.70
2022-09-21T10:48:07.923Z,2.40
2022-09-21T10:50:39.312Z,2.28
2022-09-21T10:53:21.154Z,2.47
2022-09-21T10:56:17.409Z,2.28
2022-09-21T10:59:11.231Z,2.30
2022-09-21T11:01:45.250Z,1.92
2022-09-21T11:04:18.219Z,3.03
2022-09-21T11:06:50.055Z,2.22
2022-09-21T11:09:23.047Z,2.10
2022-09-21T11:12:00.334Z,2.38
2022-09-21T11:14:44.556Z,2.40
2022-09-21T11:17:18.962Z,2.20
2022-09-21T11:19:55.755Z,2.25
2022-09-21T11:22:31.661Z,1.80
2022-09-21T11:25:09.930Z,2.20
2022-09-21T11:27:43.991Z,2.00
2022-09-21T11:30:14.389Z,1.90
2022-09-21T11:33:02.384Z,1.98
2022-09-21T11:35:54.314Z,2.38
2022-09-21T11:38:41.205Z,1.95
2022-09-21T11:41:38.204Z,2.10
2022-09-21T11:44:20.206Z,1.95
2022-09-21T11:47:00.453Z,1.83
2022-09-21T11:49:49.685Z,1.92
2022-09-21T11:52:37.841Z,1.73
2022-09-21T11:55:29.532Z,1.73
2022-09-21T11:58:07.809Z,1.70
2022-09-21T12:00:45.332Z,1.80
2022-09-21T12:03:39.285Z,1.90
2022-09-21T12:06:18.954Z,1.60
2022-09-21T12:09:01.464Z,1.50
2022-09-21T12:11:37.978Z,1.70
2022-09-21T12:14:15.346Z,1.60
2022-09-21T12:16:53.130Z,1.40
2022-09-21T12:19:33.794Z,1.80
2022-09-21T12:22:13.012Z,1.55
2022-09-21T12:24:45.571Z,1.60
2022-09-21T12:27:26.169Z,1.60
2022-09-21T12:29:59.369Z,1.70
2022-09-21T12:32:47.307Z,1.52
2022-09-21T12:35:18.958Z,1.38
2022-09-21T12:37:52.191Z,1.30
2022-09-21T12:40:25.259Z,1.35
2022-09-21T12:43:01.649Z,1.33
2022-09-21T12:45:34.155Z,1.30
2022-09-21T12:48:10.353Z,1.30
2022-09-21T12:50:44.468Z,1.30
2022-09-21T12:53:19.034Z,1.25
2022-09-21T12:56:02.449Z,1.30
2022-09-21T12:58:48.879Z,1.42
2022-09-21T13:01:26.665Z,1.20
2022-09-21T13:04:10.640Z,1.30
2022-09-21T13:07:00.410Z,1.10
2022-09-21T13:09:31.086Z,1.40
2022-09-21T13:12:04.444Z,1.33
2022-09-21T13:14:36.374Z,1.10
2022-09-21T13:17:07.131Z,1.50
2022-09-21T13:19:37.121Z,1.25
2022-09-21T13:22:19.891Z,1.35
2022-09-21T13:25:03.050Z,1.40
2022-09-21T13:28:01.420Z,1.20
2022-09-21T13:30:33.505Z,1.15
2022-09-21T13:33:03.210Z,1.10
2022-09-21T13:36:05.027Z,1.15
2022-09-21T13:38:37.438Z,1.23
2022-09-21T13:41:31.520Z,1.30
2022-09-21T13:44:43.355Z,1.15
2022-09-21T13:47:14.673Z,1.00
2022-09-21T13:49:53.263Z,1.20
2022-09-21T13:52:33.614Z,1.00
2022-09-21T13:55:04.221Z,1.40
2022-09-21T13:57:37.952Z,1.20
2022-09-21T14:00:30.881Z,1.00
2022-09-21T14:03:04.354Z,1.10
2022-09-21T14:05:37.168Z,1.00
2022-09-21T14:08:20.460Z,1.10
2022-09-21T14:10:54.817Z,1.10
2022-09-21T14:13:33.097Z,1.00
2022-09-21T14:16:27.781Z,1.08
2022-09-21T14:18:56.681Z,1.00
2022-09-21T14:21:24.871Z,1.10
2022-09-21T14:24:38.348Z,1.10
2022-09-21T14:27:16.234Z,1.17
2022-09-21T14:29:49.603Z,1.08
2022-09-21T14:32:23.307Z,1.00
2022-09-21T14:34:57.134Z,0.98
2022-09-21T14:37:32.011Z,1.23
2022-09-21T14:40:05.940Z,1.00
2022-09-21T14:42:34.486Z,1.00
2022-09-21T14:45:04.098Z,1.00
2022-09-21T14:48:06.556Z,0.90
2022-09-21T14:50:37.311Z,0.90
2022-09-21T14:53:32.724Z,1.00
2022-09-21T14:56:36.072Z,0.93
2022-09-21T14:59:21.136Z,1.00
2022-09-21T15:01:59.685Z,0.90
2022-09-21T15:04:33.964Z,1.02
2022-09-21T15:07:33.540Z,1.05
2022-09-21T15:10:38.554Z,1.10
2022-09-21T15:13:21.629Z,1.10
2022-09-21T15:16:09.145Z,1.00
2022-09-21T15:18:42.592Z,0.90
2022-09-21T15:21:22.545Z,1.20
2022-09-21T15:23:52.571Z,1.20
2022-09-21T15:26:26.706Z,1.10
2022-09-21T15:29:09.181Z,1.05
2022-09-21T15:31:41.204Z,1.10
2022-09-21T15:34:10.818Z,1.08
2022-09-21T15:36:41.441Z,1.00
2022-09-21T15:39:22.944Z,1.20
2022-09-21T15:42:24.754Z,1.40
2022-09-21T15:45:11.519Z,2.70
2022-09-21T15:47:42.244Z,1.30
2022-09-21T15:50:14.368Z,1.10
2022-09-21T15:52:48.180Z,1.10
2022-09-21T15:55:21.447Z,1.20
2022-09-21T15:57:51.651Z,1.10
2022-09-21T16:00:25.166Z,1.20
2022-09-21T16:03:04.848Z,1.10
2022-09-21T16:05:48.380Z,1.20
2022-09-21T16:08:27.214Z,0.98
2022-09-21T16:11:13.331Z,1.10
2022-09-21T16:14:00.626Z,1.20
2022-09-21T16:16:30.358Z,1.00
2022-09-21T16:19:00.621Z,1.10
2022-09-21T16:21:32.630Z,1.30
2022-09-21T16:24:12.455Z,1.10
2022-09-21T16:26:42.466Z,1.35
2022-09-21T16:29:23.492Z,1.35
2022-09-21T16:31:53.617Z,2.78
2022-09-21T16:34:36.628Z,1.20
2022-09-21T16:37:25.329Z,1.90
2022-09-21T16:39:54.143Z,1.60
2022-09-21T16:42:23.559Z,2.10
2022-09-21T16:44:52.757Z,2.10
2022-09-21T16:47:25.150Z,1.70
2022-09-21T16:49:56.522Z,1.77
2022-09-21T16:52:24.957Z,2.92
2022-09-21T16:54:54.968Z,1.65
2022-09-21T16:57:23.608Z,2.03
2022-09-21T16:59:52.008Z,3.50
2022-09-21T17:02:20.337Z,1.92
2022-09-21T17:04:50.563Z,1.75
2022-09-21T17:07:18.711Z,1.90
2022-09-21T17:09:48.261Z,1.80
2022-09-21T17:12:18.110Z,2.65
2022-09-21T17:14:47.490Z,2.20
2022-09-21T17:17:19.546Z,1.90
2022-09-21T17:19:50.751Z,2.20
2022-09-21T17:22:19.516Z,1.90
2022-09-21T17:24:51.451Z,2.17
2022-09-21T17:27:22.721Z,1.70
2022-09-21T17:29:51.801Z,1.60
2022-09-21T17:32:21.376Z,4.93
2022-09-21T17:34:56.313Z,3.20
2022-09-21T17:37:25.230Z,3.50
2022-09-21T17:39:54.348Z,6.07
2022-09-21T17:42:25.164Z,2.80
2022-09-21T17:45:12.696Z,2.50
2022-09-21T17:47:41.789Z,3.20
2022-09-21T17:50:22.987Z,2.60
2022-09-21T17:53:09.527Z,3.20
2022-09-21T17:55:39.079Z,2.00
2022-09-21T17:58:19.459Z,2.87
2022-09-21T18:00:59.176Z,2.37
2022-09-21T18:03:30.043Z,2.07
2022-09-21T18:06:00.773Z,2.10
2022-09-21T18:08:30.293Z,1.90
2022-09-21T18:11:10.746Z,2.37
2022-09-21T18:13:48.022Z,3.47
2022-09-21T18:16:33.686Z,3.73
2022-09-21T18:19:29.290Z,3.13
2022-09-21T18:22:04.365Z,2.70
2022-09-21T18:24:33.119Z,2.13
2022-09-21T18:27:02.092Z,2.30
2022-09-21T18:29:39.956Z,2.23
2022-09-21T18:32:32.251Z,3.10
2022-09-21T18:35:34.766Z,13.20
2022-09-21T18:38:15.874Z,2.70
2022-09-21T18:40:58.175Z,2.50
2022-09-21T18:43:34.134Z,2.70
2022-09-21T18:46:05.650Z,2.80
2022-09-21T18:48:50.815Z,3.70
2022-09-21T18:51:28.558Z,3.37
2022-09-21T18:53:58.733Z,3.10
2022-09-21T18:56:29.750Z,3.60
2022-09-21T18:58:59.051Z,3.57
2022-09-21T19:01:29.876Z,3.53
2022-09-21T19:03:58.793Z,3.10
2022-09-21T19:06:38.257Z,3.27
2022-09-21T19:09:28.477Z,3.07
2022-09-21T19:12:03.754Z,3.53
2022-09-21T19:14:38.478Z,3.20
2022-09-21T19:17:17.693Z,3.70
2022-09-21T19:19:58.126Z,4.00
2022-09-21T19:22:35.914Z,4.10
2022-09-21T19:25:13.219Z,3.93
2022-09-21T19:27:48.064Z,4.87
2022-09-21T19:30:17.688Z,4.63
2022-09-21T19:32:49.054Z,5.17
2022-09-21T19:35:20.961Z,6.10
2022-09-21T19:37:50.025Z,5.00
2022-09-21T19:40:23.146Z,4.30
2022-09-21T19:43:06.245Z,4.30
2022-09-21T19:45:45.912Z,4.97
2022-09-21T19:48:17.318Z,4.97
2022-09-21T19:50:54.636Z,5.33
2022-09-21T19:53:41.268Z,7.57
2022-09-21T19:56:31.703Z,8.53
2022-09-21T19:59:18.054Z,10.40
2022-09-21T20:01:52.488Z,10.20
2022-09-21T20:04:27.710Z,9.10
2022-09-21T20:07:01.098Z,9.63
2022-09-21T20:09:37.398Z,8.80
2022-09-21T20:12:14.771Z,8.10
2022-09-21T20:14:47.773Z,5.50
2022-09-21T20:17:22.185Z,4.30
2022-09-21T20:19:55.907Z,3.60
2022-09-21T20:22:33.665Z,3.43
2022-09-21T20:25:06.935Z,3.30
2022-09-21T20:27:40.519Z,3.63
2022-09-21T20:30:11.255Z,3.73
2022-09-21T20:32:42.798Z,4.20
2022-09-21T20:35:17.074Z,3.70
2022-09-21T20:37:47.020Z,3.10
2022-09-21T20:40:16.552Z,2.83
2022-09-21T20:42:46.136Z,3.00
2022-09-21T20:45:14.919Z,3.83
2022-09-21T20:47:43.436Z,3.40
2022-09-21T20:50:13.593Z,2.70
2022-09-21T20:52:42.971Z,2.70
2022-09-21T20:55:14.149Z,2.83
2022-09-21T20:57:45.747Z,2.80
2022-09-21T21:00:15.951Z,2.80
2022-09-21T21:02:44.287Z,2.63
2022-09-21T21:05:12.439Z,3.20
2022-09-21T21:07:42.497Z,2.97
2022-09-21T21:10:13.247Z,2.77
2022-09-21T21:12:41.717Z,3.60
2022-09-21T21:15:12.477Z,2.90
2022-09-21T21:17:40.723Z,2.90
2022-09-21T21:20:10.251Z,2.93
2022-09-21T21:22:38.464Z,3.30
2022-09-21T21:25:07.154Z,5.63
2022-09-21T21:27:36.326Z,11.40
2022-09-21T21:30:05.226Z,12.60
2022-09-21T21:32:35.404Z,8.40
2022-09-21T21:35:03.841Z,12.00
2022-09-21T21:37:32.060Z,7.03
2022-09-21T21:40:00.465Z,7.43
2022-09-21T21:42:29.493Z,7.17
2022-09-21T21:44:57.855Z,6.20
2022-09-21T21:47:41.603Z,4.10
2022-09-21T21:50:11.826Z,3.67
2022-09-21T21:52:40.601Z,3.90
2022-09-21T21:55:10.293Z,3.90
2022-09-21T21:57:38.441Z,3.90
2022-09-21T22:00:08.631Z,4.27
2022-09-21T22:02:36.807Z,3.47
2022-09-21T22:05:05.161Z,3.93
2022-09-21T22:07:34.653Z,4.20
2022-09-21T22:10:03.026Z,4.07
2022-09-21T22:12:31.695Z,4.30
2022-09-21T22:14:59.847Z,4.00
2022-09-21T22:17:27.970Z,3.83
2022-09-21T22:19:56.670Z,4.10
2022-09-21T22:22:25.074Z,4.57
2022-09-21T22:24:54.709Z,4.10
2022-09-21T22:27:23.094Z,3.80
2022-09-21T22:29:51.225Z,3.90
2022-09-21T22:32:19.432Z,4.03
2022-09-21T22:34:47.703Z,4.23
2022-09-21T22:37:15.832Z,4.23
2022-09-21T22:39:44.164Z,4.30
2022-09-21T22:42:14.303Z,4.17
2022-09-21T22:44:42.424Z,3.93
2022-09-21T22:47:10.538Z,4.10
2022-09-21T22:49:38.718Z,3.93
2022-09-21T22:52:07.320Z,4.20
2022-09-21T22:54:35.466Z,3.90
2022-09-21T22:57:03.665Z,3.97
2022-09-21T22:59:33.389Z,4.50
2022-09-21T23:02:01.519Z,4.40
2022-09-21T23:04:29.710Z,4.13
2022-09-21T23:06:57.890Z,4.43
2022-09-21T23:09:26.344Z,4.37
2022-09-21T23:11:54.867Z,4.20
2022-09-21T23:14:24.303Z,4.23
2022-09-21T23:16:54.199Z,4.17
2022-09-21T23:19:22.413Z,3.97
2022-09-21T23:21:51.330Z,3.70
2022-09-21T23:24:20.490Z,3.80
2022-09-21T23:26:54.145Z,3.77
2022-09-21T23:29:22.321Z,3.53
2022-09-21T23:31:50.526Z,3.90
2022-09-21T23:34:20.341Z,3.93
2022-09-21T23:36:48.521Z,3.60
2022-09-21T23:39:16.967Z,3.80
2022-09-21T23:41:45.645Z,3.60
2022-09-21T23:44:14.391Z,3.90
2022-09-21T23:46:42.825Z,3.40
2022-09-21T23:49:11.191Z,4.10
2022-09-21T23:51:41.189Z,3.87
2022-09-21T23:54:09.636Z,3.50
2022-09-21T23:56:38.124Z,4.10
2022-09-21T23:59:06.652Z,4.10
